createdAt,value
2018-12-03T00:01:06.862Z,96.30
2018-12-03T00:03:35.587Z,96.30
2018-12-03T00:06:03.558Z,96.40
2018-12-03T00:08:31.490Z,96.40
2018-12-03T00:10:59.425Z,96.40
2018-12-03T00:13:27.373Z,96.40
2018-12-03T00:15:55.345Z,96.40
2018-12-03T00:18:23.874Z,96.40
2018-12-03T00:20:51.844Z,96.40
2018-12-03T00:23:19.861Z,96.40
2018-12-03T00:25:47.817Z,96.30
2018-12-03T00:28:15.858Z,96.30
2018-12-03T00:30:43.781Z,96.30
2018-12-03T00:33:11.718Z,96.40
2018-12-03T00:35:39.693Z,96.30
2018-12-03T00:38:07.646Z,96.40
2018-12-03T00:40:35.594Z,96.30
2018-12-03T00:43:03.597Z,96.30
2018-12-03T00:45:31.537Z,96.60
2018-12-03T00:47:59.498Z,96.60
2018-12-03T00:50:27.457Z,96.20
2018-12-03T00:52:55.408Z,96.30
2018-12-03T00:55:23.370Z,96.40
2018-12-03T00:57:51.382Z,96.50
2018-12-03T01:00:19.513Z,96.50
2018-12-03T01:02:47.500Z,96.90
2018-12-03T01:05:15.473Z,96.70
2018-12-03T01:07:43.407Z,96.90
2018-12-03T01:10:11.367Z,97.00
2018-12-03T01:12:39.320Z,97.10
2018-12-03T01:15:08.557Z,97.20
2018-12-03T01:17:40.374Z,97.30
2018-12-03T01:20:10.564Z,97.20
2018-12-03T01:22:38.617Z,97.20
2018-12-03T01:25:06.894Z,97.40
2018-12-03T01:27:34.889Z,97.20
2018-12-03T01:30:03.016Z,97.30
2018-12-03T01:32:30.953Z,97.20
2018-12-03T01:34:58.887Z,97.10
2018-12-03T01:37:26.850Z,97.10
2018-12-03T01:39:54.793Z,97.10
2018-12-03T01:42:22.779Z,97.10
2018-12-03T01:44:50.837Z,97.10
2018-12-03T01:47:18.791Z,97.20
2018-12-03T01:49:46.728Z,97.30
2018-12-03T01:52:14.707Z,97.30
2018-12-03T01:54:42.704Z,97.30
2018-12-03T01:59:44.964Z,97.50
2018-12-03T02:02:12.913Z,97.40
2018-12-03T02:04:40.876Z,97.50
2018-12-03T02:07:08.833Z,97.40
2018-12-03T02:09:36.785Z,97.40
2018-12-03T02:12:04.809Z,97.30
2018-12-03T02:14:32.733Z,97.30
2018-12-03T02:17:00.693Z,97.20
2018-12-03T02:19:35.322Z,97.20
2018-12-03T02:22:03.244Z,97.30
2018-12-03T02:24:31.225Z,97.40
2018-12-03T02:26:59.224Z,97.50
2018-12-03T02:29:27.154Z,97.40
2018-12-03T02:31:55.122Z,97.40
2018-12-03T02:34:23.097Z,97.30
2018-12-03T02:36:51.037Z,97.20
2018-12-03T02:39:18.989Z,97.20
2018-12-03T02:41:46.947Z,97.10
2018-12-03T02:44:15.237Z,97.10
2018-12-03T02:46:43.257Z,97.00
2018-12-03T02:49:11.224Z,97.00
2018-12-03T02:51:39.183Z,97.00
2018-12-03T02:54:07.117Z,97.00
2018-12-03T02:56:35.083Z,96.90
2018-12-03T02:59:03.041Z,97.30
2018-12-03T03:01:30.978Z,96.90
2018-12-03T03:04:05.998Z,96.90
2018-12-03T03:06:33.925Z,96.90
2018-12-03T03:09:01.877Z,96.90
2018-12-03T03:11:29.840Z,96.90
2018-12-03T03:13:57.959Z,96.90
2018-12-03T03:16:26.090Z,96.90
2018-12-03T03:18:54.373Z,96.90
2018-12-03T03:21:22.619Z,96.80
2018-12-03T03:23:50.789Z,96.80
2018-12-03T03:26:18.939Z,96.80
2018-12-03T03:28:47.041Z,96.80
2018-12-03T03:31:15.293Z,96.90
2018-12-03T03:33:43.325Z,96.90
2018-12-03T03:36:11.337Z,96.90
2018-12-03T03:38:39.345Z,97.00
2018-12-03T03:41:07.334Z,97.00
2018-12-03T03:43:35.310Z,97.00
2018-12-03T03:46:03.281Z,97.10
2018-12-03T03:48:31.207Z,97.10
2018-12-03T03:50:59.173Z,97.00
2018-12-03T03:53:27.154Z,97.10
2018-12-03T03:55:55.141Z,97.10
2018-12-03T03:58:23.368Z,97.00
2018-12-03T04:00:51.303Z,97.10
2018-12-03T04:03:19.217Z,97.10
2018-12-03T04:05:47.318Z,97.10
2018-12-03T04:08:15.246Z,97.10
2018-12-03T04:10:43.183Z,97.00
2018-12-03T04:13:11.181Z,97.00
2018-12-03T04:15:39.263Z,97.00
2018-12-03T04:18:07.124Z,97.00
2018-12-03T04:20:38.773Z,97.10
2018-12-03T04:23:06.714Z,97.10
2018-12-03T04:25:34.645Z,97.10
2018-12-03T04:28:02.615Z,97.10
2018-12-03T04:30:30.580Z,97.20
2018-12-03T04:32:58.529Z,97.20
2018-12-03T04:35:34.596Z,97.20
2018-12-03T04:38:02.606Z,97.30
2018-12-03T04:40:30.669Z,97.30
2018-12-03T04:42:58.639Z,97.30
2018-12-03T04:45:26.569Z,97.20
2018-12-03T04:47:54.573Z,97.10
2018-12-03T04:50:22.565Z,97.10
2018-12-03T04:52:50.536Z,97.30
2018-12-03T04:55:20.073Z,97.20
2018-12-03T04:57:48.149Z,97.20
2018-12-03T05:00:17.362Z,97.20
2018-12-03T05:02:46.464Z,97.10
2018-12-03T05:05:14.446Z,97.10
2018-12-03T05:07:42.375Z,97.10
2018-12-03T05:10:12.525Z,97.20
2018-12-03T05:12:41.338Z,97.20
2018-12-03T05:15:10.615Z,96.80
2018-12-03T05:17:38.806Z,97.20
2018-12-03T05:20:10.925Z,97.20
2018-12-03T05:22:39.081Z,97.20
2018-12-03T05:25:08.591Z,97.30
2018-12-03T05:27:36.522Z,97.30
2018-12-03T05:30:08.570Z,97.30
2018-12-03T05:32:36.544Z,97.60
2018-12-03T05:35:06.346Z,97.30
2018-12-03T05:37:34.401Z,97.20
2018-12-03T05:40:02.357Z,97.20
2018-12-03T05:42:30.309Z,97.30
2018-12-03T05:44:58.409Z,97.20
2018-12-03T05:47:26.397Z,97.20
2018-12-03T05:49:54.412Z,97.20
2018-12-03T05:52:25.552Z,97.20
2018-12-03T05:54:53.577Z,97.20
2018-12-03T05:57:21.529Z,97.20
2018-12-03T05:59:49.532Z,97.30
2018-12-03T06:02:17.462Z,97.40
2018-12-03T06:04:45.400Z,97.80
2018-12-03T06:09:46.858Z,97.40
2018-12-03T06:12:14.798Z,97.40
2018-12-03T06:14:42.729Z,97.80
2018-12-03T06:17:10.802Z,97.60
2018-12-03T06:19:38.745Z,97.90
2018-12-03T06:22:06.677Z,97.60
2018-12-03T06:24:34.699Z,97.50
2018-12-03T06:27:02.632Z,97.60
2018-12-03T06:29:30.626Z,97.50
2018-12-03T06:31:58.625Z,97.50
2018-12-03T06:34:26.629Z,97.50
2018-12-03T06:36:54.607Z,97.60
2018-12-03T06:39:22.544Z,97.60
2018-12-03T06:41:50.582Z,97.70
2018-12-03T06:44:18.509Z,97.70
2018-12-03T06:46:46.493Z,97.70
2018-12-03T06:49:14.437Z,97.70
2018-12-03T06:51:42.376Z,97.80
2018-12-03T06:54:10.376Z,97.70
2018-12-03T06:56:38.369Z,97.70
2018-12-03T06:59:06.389Z,97.60
2018-12-03T07:01:34.378Z,97.70
2018-12-03T07:04:02.439Z,97.80
2018-12-03T07:06:30.386Z,97.80
2018-12-03T07:09:01.793Z,97.80
2018-12-03T07:11:29.742Z,97.80
2018-12-03T07:13:57.673Z,97.80
2018-12-03T07:16:25.767Z,97.80
2018-12-03T07:18:53.709Z,97.90
2018-12-03T07:21:21.642Z,97.90
2018-12-03T07:23:52.784Z,97.90
2018-12-03T07:26:20.716Z,98.00
2018-12-03T07:28:48.682Z,98.00
2018-12-03T07:31:16.717Z,98.00
2018-12-03T07:33:44.655Z,98.00
2018-12-03T07:36:12.598Z,98.00
2018-12-03T07:38:43.700Z,98.00
2018-12-03T07:41:11.621Z,98.00
2018-12-03T07:43:39.645Z,98.00
2018-12-03T07:46:07.619Z,97.90
2018-12-03T07:48:35.744Z,97.90
2018-12-03T07:51:03.688Z,97.90
2018-12-03T07:53:31.623Z,97.90
2018-12-03T07:55:59.586Z,98.00
2018-12-03T07:58:27.517Z,97.90
2018-12-03T08:00:56.987Z,97.90
2018-12-03T08:03:25.102Z,97.80
2018-12-03T08:05:53.410Z,97.80
2018-12-03T08:08:21.340Z,97.90
2018-12-03T08:10:51.961Z,98.10
2018-12-03T08:13:21.106Z,98.00
2018-12-03T08:15:49.053Z,98.00
2018-12-03T08:18:19.484Z,98.00
2018-12-03T08:20:54.969Z,98.00
2018-12-03T08:23:27.395Z,98.00
2018-12-03T08:25:55.466Z,98.00
2018-12-03T08:28:23.419Z,98.00
2018-12-03T08:30:51.345Z,97.90
2018-12-03T08:33:19.397Z,97.90
2018-12-03T08:35:47.330Z,97.90
2018-12-03T08:38:15.329Z,98.00
2018-12-03T08:40:43.346Z,98.00
2018-12-03T08:43:11.278Z,98.00
2018-12-03T08:45:39.350Z,98.00
2018-12-03T08:48:07.326Z,98.10
2018-12-03T08:50:35.292Z,97.70
2018-12-03T08:53:36.692Z,98.10
2018-12-03T08:56:05.280Z,97.80
2018-12-03T08:58:33.338Z,97.80
2018-12-03T09:01:06.856Z,97.80
2018-12-03T09:03:35.304Z,97.70
2018-12-03T09:06:08.162Z,97.60
2018-12-03T09:08:36.227Z,97.50
2018-12-03T09:11:04.257Z,97.50
2018-12-03T09:13:32.396Z,97.50
2018-12-03T09:16:01.463Z,97.50
2018-12-03T09:18:34.636Z,97.60
2018-12-03T09:21:08.548Z,97.50
2018-12-03T09:23:36.657Z,97.50
2018-12-03T09:26:04.948Z,97.50
2018-12-03T09:28:34.555Z,97.50
2018-12-03T09:31:02.857Z,97.50
2018-12-03T09:33:31.209Z,97.50
2018-12-03T09:35:59.264Z,97.50
2018-12-03T09:38:27.305Z,97.50
2018-12-03T09:41:00.440Z,97.50
2018-12-03T09:43:29.765Z,97.60
2018-12-03T09:45:57.917Z,97.60
2018-12-03T09:48:26.025Z,97.60
2018-12-03T09:50:54.045Z,97.70
2018-12-03T09:53:22.164Z,97.70
2018-12-03T09:55:53.903Z,97.80
2018-12-03T09:58:23.281Z,97.80
2018-12-03T10:00:51.321Z,97.80
2018-12-03T10:03:26.066Z,97.70
2018-12-03T10:05:56.817Z,97.60
2018-12-03T10:08:29.217Z,97.70
2018-12-03T10:11:03.104Z,97.70
2018-12-03T10:13:32.198Z,97.60
2018-12-03T10:16:00.232Z,97.60
2018-12-03T10:18:28.407Z,97.90
2018-12-03T10:20:57.984Z,97.60
2018-12-03T10:23:26.011Z,97.60
2018-12-03T10:25:57.500Z,97.60
2018-12-03T10:28:25.854Z,97.60
2018-12-03T10:30:55.475Z,97.60
2018-12-03T10:33:33.711Z,97.60
2018-12-03T10:36:04.054Z,97.60
2018-12-03T10:38:33.867Z,97.60
2018-12-03T10:41:07.963Z,97.60
2018-12-03T10:43:35.985Z,97.50
2018-12-03T10:46:04.101Z,97.50
2018-12-03T10:48:32.126Z,97.40
2018-12-03T10:51:00.155Z,97.40
2018-12-03T10:53:30.795Z,97.30
2018-12-03T10:55:58.896Z,97.30
2018-12-03T10:58:30.764Z,97.30
2018-12-03T11:01:10.368Z,97.20
2018-12-03T11:03:43.970Z,97.10
2018-12-03T11:06:17.009Z,97.10
2018-12-03T11:08:45.700Z,97.10
2018-12-03T11:11:13.882Z,97.10
2018-12-03T11:13:42.002Z,97.10
2018-12-03T11:16:17.290Z,97.00
2018-12-03T11:18:49.047Z,96.90
2018-12-03T11:21:17.326Z,96.60
2018-12-03T11:23:45.437Z,97.10
2018-12-03T11:26:13.532Z,96.90
2018-12-03T11:28:44.113Z,97.00
2018-12-03T11:31:20.213Z,96.90
2018-12-03T11:33:48.436Z,96.80
2018-12-03T11:36:21.368Z,96.70
2018-12-03T11:39:11.553Z,96.70
2018-12-03T11:41:39.838Z,96.60
2018-12-03T11:44:07.978Z,96.60
2018-12-03T11:46:36.054Z,96.50
2018-12-03T11:49:04.324Z,96.50
2018-12-03T11:51:32.681Z,96.40
2018-12-03T11:54:00.786Z,96.40
2018-12-03T11:56:28.879Z,96.30
2018-12-03T11:58:56.938Z,96.30
2018-12-03T12:01:25.177Z,96.10
2018-12-03T12:03:53.305Z,96.00
2018-12-03T12:06:21.373Z,95.90
2018-12-03T12:08:49.495Z,95.70
2018-12-03T12:11:28.075Z,95.70
2018-12-03T12:13:56.207Z,95.60
2018-12-03T12:16:24.270Z,95.60
2018-12-03T12:18:52.338Z,95.40
2018-12-03T12:21:20.498Z,95.30
2018-12-03T12:23:48.619Z,95.30
2018-12-03T12:26:16.743Z,95.10
2018-12-03T12:28:44.887Z,95.00
2018-12-03T12:31:13.149Z,95.00
2018-12-03T12:33:41.236Z,94.70
2018-12-03T12:36:09.370Z,94.50
2018-12-03T12:38:37.452Z,94.20
2018-12-03T12:41:05.616Z,94.00
2018-12-03T12:43:36.865Z,94.00
2018-12-03T12:46:08.732Z,93.80
2018-12-03T12:48:36.764Z,93.90
2018-12-03T12:51:04.868Z,93.20
2018-12-03T12:53:32.959Z,93.20
2018-12-03T12:56:01.638Z,93.10
2018-12-03T12:58:29.667Z,93.10
2018-12-03T13:00:57.787Z,93.10
2018-12-03T13:03:25.974Z,92.80
2018-12-03T13:05:54.156Z,92.50
2018-12-03T13:08:22.206Z,92.50
2018-12-03T13:10:50.316Z,92.70
2018-12-03T13:13:18.351Z,92.50
2018-12-03T13:15:46.446Z,92.10
2018-12-03T13:18:14.777Z,92.20
2018-12-03T13:20:42.793Z,92.10
2018-12-03T13:23:10.846Z,92.20
2018-12-03T13:25:38.933Z,92.20
2018-12-03T13:28:07.015Z,92.10
2018-12-03T13:30:35.183Z,91.90
2018-12-03T13:33:03.248Z,91.70
2018-12-03T13:35:31.296Z,91.70
2018-12-03T13:37:59.359Z,91.70
2018-12-03T13:40:27.435Z,91.70
2018-12-03T13:42:55.497Z,91.70
2018-12-03T13:45:25.253Z,91.70
2018-12-03T13:47:54.952Z,91.70
2018-12-03T13:50:22.981Z,91.70
2018-12-03T13:52:51.080Z,91.80
2018-12-03T13:55:20.093Z,91.80
2018-12-03T13:57:48.109Z,91.80
2018-12-03T14:00:20.698Z,91.80
2018-12-03T14:03:08.439Z,91.70
2018-12-03T14:05:47.313Z,91.80
2018-12-03T14:08:21.277Z,91.90
2018-12-03T14:10:58.734Z,91.90
2018-12-03T14:14:37.239Z,92.10
2018-12-03T14:18:21.612Z,92.00
2018-12-03T14:20:50.767Z,92.10
2018-12-03T14:23:22.743Z,92.30
2018-12-03T14:25:50.845Z,92.40
2018-12-03T14:28:18.868Z,92.50
2018-12-03T14:30:46.925Z,92.50
2018-12-03T14:33:15.013Z,92.50
2018-12-03T14:35:43.853Z,92.50
2018-12-03T14:38:12.116Z,92.40
2018-12-03T14:40:40.117Z,92.30
2018-12-03T14:43:08.293Z,92.30
2018-12-03T14:45:36.340Z,92.30
2018-12-03T14:48:04.401Z,92.30
2018-12-03T14:50:32.465Z,92.30
2018-12-03T14:53:00.538Z,92.20
2018-12-03T14:55:28.558Z,92.20
2018-12-03T14:57:56.658Z,92.20
2018-12-03T15:00:24.705Z,92.10
2018-12-03T15:02:52.757Z,92.50
2018-12-03T15:05:20.800Z,92.00
2018-12-03T15:07:48.846Z,91.90
2018-12-03T15:10:16.869Z,91.70
2018-12-03T15:12:44.923Z,91.60
2018-12-03T15:15:12.937Z,91.30
2018-12-03T15:17:44.551Z,91.40
2018-12-03T15:20:12.708Z,91.40
2018-12-03T15:22:40.783Z,91.20
2018-12-03T15:25:10.969Z,91.20
2018-12-03T15:27:39.117Z,91.30
2018-12-03T15:30:08.853Z,91.20
2018-12-03T15:32:37.153Z,91.10
2018-12-03T15:35:07.287Z,91.10
2018-12-03T15:37:35.322Z,91.10
2018-12-03T15:40:04.236Z,91.00
2018-12-03T15:42:32.390Z,90.90
2018-12-03T15:45:00.457Z,91.00
2018-12-03T15:47:28.501Z,91.20
2018-12-03T15:49:56.574Z,90.80
2018-12-03T15:52:24.667Z,90.70
2018-12-03T15:54:52.673Z,90.80
2018-12-03T15:57:20.996Z,90.80
2018-12-03T15:59:49.033Z,90.70
2018-12-03T16:02:17.039Z,90.70
2018-12-03T16:04:45.074Z,90.70
2018-12-03T16:07:13.096Z,90.70
2018-12-03T16:09:41.206Z,90.60
2018-12-03T16:12:09.318Z,90.50
2018-12-03T16:14:37.379Z,90.60
2018-12-03T16:17:05.431Z,90.60
2018-12-03T16:19:33.651Z,90.70
2018-12-03T16:22:01.681Z,90.80
2018-12-03T16:24:29.797Z,90.90
2018-12-03T16:26:57.868Z,90.90
2018-12-03T16:29:25.949Z,90.90
2018-12-03T16:31:54.194Z,91.00
2018-12-03T16:34:22.293Z,91.10
2018-12-03T16:36:50.362Z,91.20
2018-12-03T16:39:18.449Z,91.30
2018-12-03T16:41:46.527Z,91.40
2018-12-03T16:44:14.573Z,91.50
2018-12-03T16:46:42.713Z,91.50
2018-12-03T16:49:10.753Z,91.50
2018-12-03T16:51:38.803Z,91.50
2018-12-03T16:54:06.831Z,91.40
2018-12-03T16:56:34.885Z,91.50
2018-12-03T16:59:02.919Z,91.40
2018-12-03T17:01:30.973Z,91.40
2018-12-03T17:03:59.115Z,91.40
2018-12-03T17:06:27.477Z,91.40
2018-12-03T17:08:55.606Z,91.30
2018-12-03T17:11:23.655Z,91.30
2018-12-03T17:13:51.745Z,91.30
2018-12-03T17:16:19.779Z,91.20
2018-12-03T17:18:47.852Z,91.10
2018-12-03T17:21:23.801Z,91.40
2018-12-03T17:23:58.298Z,91.00
2018-12-03T17:26:26.353Z,91.10
2018-12-03T17:28:54.449Z,91.10
2018-12-03T17:31:22.489Z,91.00
2018-12-03T17:33:50.781Z,91.00
2018-12-03T17:36:18.795Z,91.00
2018-12-03T17:38:46.813Z,91.00
2018-12-03T17:41:14.911Z,91.10
2018-12-03T17:43:42.929Z,91.10
2018-12-03T17:46:10.996Z,91.20
2018-12-03T17:48:42.405Z,91.50
2018-12-03T17:51:10.493Z,91.10
2018-12-03T17:53:38.517Z,91.20
2018-12-03T17:56:06.510Z,91.20
2018-12-03T17:58:34.771Z,91.20
2018-12-03T18:01:02.829Z,91.20
2018-12-03T18:03:30.901Z,91.20
2018-12-03T18:05:59.921Z,91.20
2018-12-03T18:08:28.066Z,91.20
2018-12-03T18:10:56.152Z,91.20
2018-12-03T18:13:24.346Z,91.20
2018-12-03T18:15:53.074Z,91.20
2018-12-03T18:18:21.233Z,91.20
2018-12-03T18:20:49.329Z,91.20
2018-12-03T18:23:17.417Z,91.20
2018-12-03T18:25:45.470Z,91.20
2018-12-03T18:28:13.745Z,91.20
2018-12-03T18:30:41.786Z,91.20
2018-12-03T18:33:09.854Z,91.20
2018-12-03T18:35:37.926Z,91.30
2018-12-03T18:38:05.965Z,91.30
2018-12-03T18:40:34.079Z,91.30
2018-12-03T18:43:02.161Z,91.30
2018-12-03T18:45:30.286Z,91.30
2018-12-03T18:47:58.445Z,91.40
2018-12-03T18:50:30.104Z,91.40
2018-12-03T18:52:58.141Z,91.90
2018-12-03T18:55:26.166Z,91.60
2018-12-03T18:57:58.645Z,91.60
2018-12-03T19:00:26.677Z,91.60
2018-12-03T19:02:54.700Z,91.60
2018-12-03T19:05:22.761Z,91.60
2018-12-03T19:07:50.806Z,91.90
2018-12-03T19:10:18.840Z,91.70
2018-12-03T19:12:46.913Z,91.70
2018-12-03T19:15:15.009Z,91.70
2018-12-03T19:17:43.070Z,91.80
2018-12-03T19:20:14.511Z,91.80
2018-12-03T19:22:42.602Z,91.90
2018-12-03T19:25:10.766Z,91.90
2018-12-03T19:27:38.881Z,91.90
2018-12-03T19:30:10.032Z,92.00
2018-12-03T19:32:38.096Z,92.00
2018-12-03T19:35:06.177Z,92.10
2018-12-03T19:37:34.248Z,92.10
2018-12-03T19:40:02.307Z,92.10
2018-12-03T19:42:31.132Z,92.20
2018-12-03T19:45:02.562Z,92.20
2018-12-03T19:47:30.665Z,92.20
2018-12-03T19:49:58.702Z,92.20
2018-12-03T19:52:26.793Z,92.20
2018-12-03T19:54:55.586Z,92.20
2018-12-03T19:57:28.310Z,92.20
2018-12-03T20:00:00.927Z,92.30
2018-12-03T20:02:26.925Z,92.40
2018-12-03T20:04:54.975Z,92.40
2018-12-03T20:07:22.993Z,92.40
2018-12-03T20:09:54.946Z,92.50
2018-12-03T20:12:22.961Z,92.40
2018-12-03T20:14:51.037Z,92.40
2018-12-03T20:17:27.466Z,92.50
2018-12-03T20:19:55.554Z,92.50
2018-12-03T20:22:26.097Z,92.50
2018-12-03T20:24:54.275Z,92.70
2018-12-03T20:27:43.956Z,92.60
2018-12-03T20:30:29.053Z,92.60
2018-12-03T20:33:01.910Z,92.70
2018-12-03T20:35:40.247Z,92.60
2018-12-03T20:38:15.710Z,92.60
2018-12-03T20:40:50.368Z,92.60
2018-12-03T20:43:21.228Z,92.70
2018-12-03T20:45:58.881Z,92.60
2018-12-03T20:48:38.684Z,92.70
2018-12-03T20:51:41.431Z,92.70
2018-12-03T20:54:09.505Z,92.70
2018-12-03T20:56:37.529Z,92.70
2018-12-03T20:59:05.622Z,92.80
2018-12-03T21:01:37.330Z,92.80
2018-12-03T21:04:05.459Z,92.70
2018-12-03T21:06:33.526Z,93.00
2018-12-03T21:09:01.671Z,92.90
2018-12-03T21:11:29.762Z,92.90
2018-12-03T21:13:57.798Z,92.90
2018-12-03T21:16:26.034Z,92.90
2018-12-03T21:18:54.070Z,92.80
2018-12-03T21:21:22.193Z,92.80
2018-12-03T21:23:50.325Z,92.90
2018-12-03T21:26:18.391Z,92.90
2018-12-03T21:28:46.433Z,92.90
2018-12-03T21:31:14.481Z,93.00
2018-12-03T21:33:42.509Z,93.00
2018-12-03T21:36:10.562Z,93.00
2018-12-03T21:38:38.658Z,93.00
2018-12-03T21:41:06.709Z,93.00
2018-12-03T21:43:34.737Z,93.00
2018-12-03T21:46:04.062Z,93.00
2018-12-03T21:48:32.098Z,93.00
2018-12-03T21:51:00.203Z,93.00
2018-12-03T21:53:28.664Z,92.90
2018-12-03T21:55:56.702Z,92.90
2018-12-03T21:58:24.848Z,92.90
2018-12-03T22:00:52.946Z,93.00
2018-12-03T22:03:20.970Z,93.00
2018-12-03T22:05:48.985Z,93.00
2018-12-03T22:08:17.131Z,93.40
2018-12-03T22:10:45.149Z,93.10
2018-12-03T22:13:13.178Z,93.10
2018-12-03T22:15:41.537Z,93.10
2018-12-03T22:18:09.595Z,93.00
2018-12-03T22:20:37.618Z,93.30
2018-12-03T22:23:12.845Z,93.00
2018-12-03T22:25:40.962Z,93.10
2018-12-03T22:28:08.990Z,93.10
2018-12-03T22:30:37.037Z,93.10
2018-12-03T22:33:05.172Z,93.00
2018-12-03T22:35:33.234Z,93.00
2018-12-03T22:38:01.279Z,92.90
2018-12-03T22:40:29.729Z,92.90
2018-12-03T22:42:57.769Z,92.90
2018-12-03T22:45:25.798Z,92.90
2018-12-03T22:47:53.848Z,93.00
2018-12-03T22:50:21.864Z,93.00
2018-12-03T22:52:49.889Z,93.00
2018-12-03T22:55:18.017Z,93.00
2018-12-03T22:57:46.037Z,93.00
2018-12-03T23:00:20.989Z,92.90
2018-12-03T23:02:49.030Z,92.90
2018-12-03T23:05:17.093Z,92.90
2018-12-03T23:07:45.125Z,92.90
2018-12-03T23:10:13.294Z,92.90
2018-12-03T23:12:41.341Z,92.90
2018-12-03T23:15:09.406Z,92.90
2018-12-03T23:17:37.686Z,92.80
2018-12-03T23:20:06.167Z,92.80
2018-12-03T23:22:34.203Z,92.80
2018-12-03T23:25:02.414Z,92.90
2018-12-03T23:27:30.478Z,92.80
2018-12-03T23:29:58.496Z,92.80
2018-12-03T23:32:26.548Z,92.70
2018-12-03T23:34:54.896Z,92.70
2018-12-03T23:37:22.990Z,92.70
2018-12-03T23:39:51.045Z,92.80
2018-12-03T23:42:19.366Z,92.90
2018-12-03T23:44:47.406Z,93.00
2018-12-03T23:47:15.537Z,93.00
2018-12-03T23:49:43.586Z,93.00
2018-12-03T23:52:11.652Z,93.00
2018-12-03T23:54:39.681Z,93.00
2018-12-03T23:57:07.862Z,93.00
2018-12-03T23:59:35.906Z,92.90
